createdAt,value
2022-09-27T00:01:09.982Z,10.10
2022-09-27T00:03:38.207Z,10.10
2022-09-27T00:06:08.757Z,10.10
2022-09-27T00:08:38.013Z,10.10
2022-09-27T00:11:09.017Z,10.10
2022-09-27T00:13:36.850Z,10.00
2022-09-27T00:16:05.991Z,10.00
2022-09-27T00:18:34.641Z,10.10
2022-09-27T00:21:07.528Z,10.00
2022-09-27T00:23:36.855Z,10.00
2022-09-27T00:26:05.653Z,10.00
2022-09-27T00:28:34.140Z,10.00
2022-09-27T00:31:02.634Z,10.00
2022-09-27T00:33:30.516Z,9.90
2022-09-27T00:36:05.144Z,9.90
2022-09-27T00:38:32.982Z,9.90
2022-09-27T00:41:02.177Z,9.90
2022-09-27T00:43:45.493Z,9.90
2022-09-27T00:46:15.322Z,9.90
2022-09-27T00:48:43.313Z,9.90
2022-09-27T00:51:11.760Z,9.90
2022-09-27T00:53:46.363Z,9.90
2022-09-27T00:56:19.577Z,9.90
2022-09-27T00:58:51.688Z,9.90
2022-09-27T01:01:19.559Z,9.90
2022-09-27T01:03:52.662Z,9.80
2022-09-27T01:06:22.568Z,9.80
2022-09-27T01:08:50.486Z,9.80
2022-09-27T01:11:32.478Z,9.80
2022-09-27T01:14:28.759Z,9.70
2022-09-27T01:17:08.188Z,9.70
2022-09-27T01:20:12.423Z,9.70
2022-09-27T01:22:46.587Z,9.70
2022-09-27T01:25:34.306Z,9.70
2022-09-27T01:28:27.891Z,9.60
2022-09-27T01:31:05.598Z,9.60
2022-09-27T01:33:43.948Z,9.60
2022-09-27T01:36:27.936Z,9.60
2022-09-27T01:39:05.668Z,9.60
2022-09-27T01:41:40.380Z,9.50
2022-09-27T01:44:14.684Z,9.60
2022-09-27T01:46:48.906Z,9.60
2022-09-27T01:49:19.359Z,9.60
2022-09-27T01:51:52.983Z,9.60
2022-09-27T01:54:26.226Z,9.60
2022-09-27T01:56:57.936Z,9.60
2022-09-27T01:59:31.088Z,9.60
2022-09-27T02:02:08.611Z,9.60
2022-09-27T02:04:38.259Z,9.50
2022-09-27T02:07:12.782Z,9.50
2022-09-27T02:09:45.285Z,9.50
2022-09-27T02:12:16.143Z,9.50
2022-09-27T02:14:47.887Z,9.50
2022-09-27T02:17:24.874Z,9.50
2022-09-27T02:19:57.544Z,9.50
2022-09-27T02:22:34.929Z,9.50
2022-09-27T02:25:11.038Z,9.50
2022-09-27T02:27:47.370Z,9.50
2022-09-27T02:30:16.446Z,9.50
2022-09-27T02:32:45.896Z,9.50
2022-09-27T02:35:18.204Z,9.50
2022-09-27T02:37:46.165Z,9.50
2022-09-27T02:40:14.860Z,9.50
2022-09-27T02:42:44.192Z,9.50
2022-09-27T02:45:12.799Z,9.50
2022-09-27T02:47:58.267Z,9.50
2022-09-27T02:50:45.622Z,9.50
2022-09-27T02:53:22.975Z,9.40
2022-09-27T02:55:55.560Z,9.40
2022-09-27T02:58:31.461Z,9.40
2022-09-27T03:01:06.858Z,9.40
2022-09-27T03:03:41.699Z,9.40
2022-09-27T03:06:12.461Z,9.40
2022-09-27T03:08:41.134Z,9.40
2022-09-27T03:11:09.083Z,9.40
2022-09-27T03:13:55.511Z,9.40
2022-09-27T03:16:26.680Z,9.40
2022-09-27T03:18:55.822Z,9.40
2022-09-27T03:21:23.534Z,9.40
2022-09-27T03:23:51.288Z,9.40
2022-09-27T03:26:19.028Z,9.40
2022-09-27T03:28:46.767Z,9.30
2022-09-27T03:31:14.624Z,9.30
2022-09-27T03:33:42.390Z,9.30
2022-09-27T03:36:12.410Z,9.30
2022-09-27T03:38:40.300Z,9.30
2022-09-27T03:41:08.064Z,9.40
2022-09-27T03:43:35.956Z,9.30
2022-09-27T03:46:03.755Z,9.30
2022-09-27T03:48:32.032Z,9.30
2022-09-27T03:50:59.828Z,9.30
2022-09-27T03:53:28.908Z,9.30
2022-09-27T03:55:57.202Z,9.40
2022-09-27T03:58:24.931Z,9.30
2022-09-27T04:00:52.672Z,9.30
2022-09-27T04:03:20.483Z,9.30
2022-09-27T04:05:48.196Z,9.30
2022-09-27T04:08:16.185Z,9.30
2022-09-27T04:10:45.244Z,9.30
2022-09-27T04:13:12.966Z,9.30
2022-09-27T04:15:40.909Z,9.30
2022-09-27T04:18:08.639Z,9.30
2022-09-27T04:20:37.422Z,9.30
2022-09-27T04:23:05.711Z,9.30
2022-09-27T04:25:33.793Z,9.30
2022-09-27T04:28:03.209Z,9.20
2022-09-27T04:30:31.413Z,9.20
2022-09-27T04:32:59.290Z,9.20
2022-09-27T04:35:44.543Z,9.20
2022-09-27T04:38:13.394Z,9.20
2022-09-27T04:40:41.799Z,9.20
2022-09-27T04:43:10.933Z,9.10
2022-09-27T04:45:38.694Z,9.20
2022-09-27T04:48:06.405Z,9.10
2022-09-27T04:50:36.415Z,9.10
2022-09-27T04:53:04.972Z,9.10
2022-09-27T04:55:32.843Z,9.10
2022-09-27T04:58:01.575Z,9.10
2022-09-27T05:00:30.729Z,9.10
2022-09-27T05:02:58.572Z,9.10
2022-09-27T05:05:26.388Z,9.10
2022-09-27T05:07:54.120Z,9.10
2022-09-27T05:10:21.854Z,9.10
2022-09-27T05:12:49.588Z,9.00
2022-09-27T05:15:17.366Z,9.10
2022-09-27T05:17:46.412Z,9.00
2022-09-27T05:20:14.241Z,9.00
2022-09-27T05:22:41.972Z,9.00
2022-09-27T05:25:10.322Z,9.00
2022-09-27T05:27:38.048Z,9.00
2022-09-27T05:30:08.157Z,9.00
2022-09-27T05:32:36.261Z,9.00
2022-09-27T05:35:06.131Z,9.00
2022-09-27T05:37:34.084Z,9.00
2022-09-27T05:40:16.969Z,9.00
2022-09-27T05:42:50.370Z,9.00
2022-09-27T05:45:18.241Z,9.00
2022-09-27T05:47:54.027Z,9.00
2022-09-27T05:50:23.210Z,9.00
2022-09-27T05:52:50.967Z,9.00
2022-09-27T05:55:18.880Z,9.00
2022-09-27T05:57:57.286Z,8.90
2022-09-27T06:00:26.008Z,8.90
2022-09-27T06:02:58.802Z,8.90
2022-09-27T06:05:30.782Z,8.90
2022-09-27T06:08:01.440Z,9.00
2022-09-27T06:10:30.403Z,8.90
2022-09-27T06:13:01.250Z,8.90
2022-09-27T06:15:29.156Z,8.90
2022-09-27T06:17:57.172Z,8.90
2022-09-27T06:20:24.915Z,8.90
2022-09-27T06:22:54.015Z,8.90
2022-09-27T06:25:21.731Z,8.90
2022-09-27T06:27:49.469Z,8.90
2022-09-27T06:30:20.370Z,8.90
2022-09-27T06:32:48.397Z,8.90
2022-09-27T06:35:16.225Z,8.90
2022-09-27T06:37:43.957Z,8.90
2022-09-27T06:40:13.231Z,8.90
2022-09-27T06:42:41.044Z,8.90
2022-09-27T06:45:09.403Z,8.90
2022-09-27T06:47:37.545Z,8.90
2022-09-27T06:50:06.546Z,8.90
2022-09-27T06:52:34.994Z,8.90
2022-09-27T06:55:02.968Z,8.90
2022-09-27T06:57:49.405Z,9.00
2022-09-27T07:00:26.825Z,9.00
2022-09-27T07:03:00.984Z,9.00
2022-09-27T07:05:29.606Z,9.00
2022-09-27T07:07:57.833Z,9.00
2022-09-27T07:10:26.729Z,9.00
2022-09-27T07:12:56.596Z,9.00
2022-09-27T07:15:24.384Z,9.00
2022-09-27T07:17:58.552Z,9.00
2022-09-27T07:20:26.927Z,9.00
2022-09-27T07:22:54.781Z,9.00
2022-09-27T07:25:22.559Z,9.00
2022-09-27T07:27:52.473Z,9.00
2022-09-27T07:30:22.276Z,9.00
2022-09-27T07:32:50.475Z,8.90
2022-09-27T07:35:18.308Z,8.90
2022-09-27T07:37:46.017Z,8.90
2022-09-27T07:40:14.252Z,8.90
2022-09-27T07:42:42.126Z,8.90
2022-09-27T07:45:11.324Z,8.90
2022-09-27T07:47:40.794Z,8.90
2022-09-27T07:50:10.649Z,8.90
2022-09-27T07:52:42.472Z,8.90
2022-09-27T07:55:11.639Z,9.00
2022-09-27T07:57:39.963Z,9.00
2022-09-27T08:00:09.730Z,9.00
2022-09-27T08:02:37.931Z,9.10
2022-09-27T08:05:08.144Z,9.10
2022-09-27T08:07:35.926Z,9.10
2022-09-27T08:10:03.660Z,9.10
2022-09-27T08:12:31.388Z,9.10
2022-09-27T08:15:01.389Z,9.10
2022-09-27T08:17:29.618Z,9.10
2022-09-27T08:19:57.750Z,9.10
2022-09-27T08:22:26.964Z,9.10
2022-09-27T08:24:54.680Z,9.10
2022-09-27T08:27:22.410Z,9.10
2022-09-27T08:29:50.632Z,9.10
2022-09-27T08:32:23.075Z,9.10
2022-09-27T08:34:51.316Z,9.10
2022-09-27T08:37:19.047Z,9.20
2022-09-27T08:39:48.370Z,9.20
2022-09-27T08:42:27.302Z,9.20
2022-09-27T08:45:03.625Z,9.20
2022-09-27T08:47:36.826Z,9.30
2022-09-27T08:50:17.714Z,9.30
2022-09-27T08:52:50.663Z,9.40
2022-09-27T08:55:26.375Z,9.40
2022-09-27T08:57:58.019Z,9.40
2022-09-27T09:00:26.531Z,9.40
2022-09-27T09:02:54.465Z,9.40
2022-09-27T09:05:32.045Z,9.50
2022-09-27T09:08:17.055Z,9.50
2022-09-27T09:11:11.331Z,9.50
2022-09-27T09:13:59.821Z,9.50
2022-09-27T09:16:42.112Z,9.50
2022-09-27T09:19:23.700Z,9.50
2022-09-27T09:22:00.596Z,9.60
2022-09-27T09:24:40.534Z,9.60
2022-09-27T09:27:18.346Z,9.60
2022-09-27T09:30:05.340Z,9.60
2022-09-27T09:32:46.119Z,9.60
2022-09-27T09:35:17.762Z,9.60
2022-09-27T09:37:49.666Z,9.70
2022-09-27T09:40:24.781Z,9.70
2022-09-27T09:42:58.227Z,9.70
2022-09-27T09:45:29.685Z,9.80
2022-09-27T09:48:03.359Z,9.80
2022-09-27T09:50:35.641Z,9.90
2022-09-27T09:53:12.774Z,10.10
2022-09-27T09:55:42.475Z,10.20
2022-09-27T09:58:22.201Z,10.20
2022-09-27T10:00:54.622Z,10.30
2022-09-27T10:03:24.353Z,10.30
2022-09-27T10:05:52.183Z,10.20
2022-09-27T10:08:22.480Z,10.20
2022-09-27T10:10:50.267Z,10.20
2022-09-27T10:13:22.431Z,10.20
2022-09-27T10:15:56.102Z,10.20
2022-09-27T10:18:26.315Z,10.20
2022-09-27T10:20:58.451Z,10.20
2022-09-27T10:23:26.525Z,10.20
2022-09-27T10:25:56.838Z,10.20
2022-09-27T10:28:32.819Z,10.30
2022-09-27T10:31:03.651Z,10.40
2022-09-27T10:33:32.614Z,10.40
2022-09-27T10:36:02.253Z,10.40
2022-09-27T10:38:32.753Z,10.50
2022-09-27T10:41:17.826Z,10.50
2022-09-27T10:43:46.954Z,10.60
2022-09-27T10:46:23.407Z,10.60
2022-09-27T10:49:09.057Z,10.60
2022-09-27T10:51:37.831Z,10.60
2022-09-27T10:54:06.597Z,10.60
2022-09-27T10:56:36.407Z,10.70
2022-09-27T10:59:05.956Z,10.70
2022-09-27T11:01:45.274Z,10.70
2022-09-27T11:04:21.877Z,10.80
2022-09-27T11:06:50.234Z,10.80
2022-09-27T11:09:24.066Z,10.80
2022-09-27T11:11:52.106Z,10.80
2022-09-27T11:14:23.867Z,10.80
2022-09-27T11:17:11.314Z,10.80
2022-09-27T11:19:50.586Z,10.80
2022-09-27T11:22:30.510Z,10.80
2022-09-27T11:25:08.266Z,10.70
2022-09-27T11:27:50.944Z,10.60
2022-09-27T11:30:22.308Z,10.60
2022-09-27T11:33:05.337Z,10.50
2022-09-27T11:35:53.152Z,10.50
2022-09-27T11:38:51.173Z,10.40
2022-09-27T11:41:36.738Z,10.40
2022-09-27T11:44:34.970Z,10.30
2022-09-27T11:47:15.495Z,10.30
2022-09-27T11:50:04.420Z,10.30
2022-09-27T11:52:46.303Z,10.20
2022-09-27T11:55:25.596Z,10.20
2022-09-27T11:58:01.597Z,10.20
2022-09-27T12:00:43.657Z,10.20
2022-09-27T12:03:52.389Z,10.30
2022-09-27T12:06:26.281Z,10.40
2022-09-27T12:09:03.562Z,10.50
2022-09-27T12:11:38.240Z,10.60
2022-09-27T12:14:11.029Z,10.70
2022-09-27T12:16:40.990Z,10.70
2022-09-27T12:19:19.130Z,10.80
2022-09-27T12:21:47.176Z,10.80
2022-09-27T12:24:21.221Z,10.80
2022-09-27T12:26:52.491Z,10.80
2022-09-27T12:29:26.021Z,10.80
2022-09-27T12:32:00.610Z,10.80
2022-09-27T12:34:36.091Z,10.80
2022-09-27T12:37:09.766Z,10.80
2022-09-27T12:39:47.989Z,10.80
2022-09-27T12:42:20.384Z,10.80
2022-09-27T12:44:50.833Z,10.90
2022-09-27T12:47:36.610Z,10.90
2022-09-27T12:50:14.698Z,11.00
2022-09-27T12:52:46.203Z,11.10
2022-09-27T12:55:45.278Z,11.10
2022-09-27T12:58:40.636Z,11.20
2022-09-27T13:01:20.514Z,11.30
2022-09-27T13:04:07.165Z,11.30
2022-09-27T13:07:00.684Z,11.30
2022-09-27T13:09:56.646Z,11.40
2022-09-27T13:12:27.357Z,11.40
2022-09-27T13:15:01.476Z,11.40
2022-09-27T13:17:53.060Z,11.30
2022-09-27T13:20:46.265Z,11.20
2022-09-27T13:23:53.066Z,11.10
2022-09-27T13:26:52.124Z,11.00
2022-09-27T13:29:31.646Z,10.80
2022-09-27T13:32:12.390Z,10.70
2022-09-27T13:34:42.168Z,10.50
2022-09-27T13:37:48.431Z,10.40
2022-09-27T13:40:26.381Z,10.30
2022-09-27T13:43:28.105Z,10.20
2022-09-27T13:45:59.510Z,10.20
2022-09-27T13:48:32.518Z,10.10
2022-09-27T13:51:03.645Z,10.10
2022-09-27T13:53:34.918Z,10.10
2022-09-27T13:56:03.433Z,10.10
2022-09-27T13:58:51.945Z,10.10
2022-09-27T14:01:29.632Z,10.10
2022-09-27T14:04:02.176Z,10.10
2022-09-27T14:06:35.116Z,10.10
2022-09-27T14:09:06.398Z,10.20
2022-09-27T14:11:37.377Z,10.20
2022-09-27T14:14:08.787Z,10.20
2022-09-27T14:16:41.386Z,10.20
2022-09-27T14:19:17.636Z,10.20
2022-09-27T14:21:46.012Z,10.30
2022-09-27T14:24:25.722Z,10.30
2022-09-27T14:27:12.774Z,10.40
2022-09-27T14:29:44.848Z,10.40
2022-09-27T14:32:14.852Z,10.40
2022-09-27T14:34:42.825Z,10.50
2022-09-27T14:37:25.860Z,10.60
2022-09-27T14:40:00.194Z,10.60
2022-09-27T14:42:32.824Z,10.70
2022-09-27T14:45:07.874Z,10.70
2022-09-27T14:47:35.615Z,10.70
2022-09-27T14:50:17.282Z,10.70
2022-09-27T14:52:45.046Z,10.70
2022-09-27T14:58:29.699Z,10.60
2022-09-27T15:01:04.989Z,10.60
2022-09-27T15:03:41.315Z,10.70
2022-09-27T15:06:11.833Z,10.70
2022-09-27T15:08:40.389Z,10.70
2022-09-27T15:11:10.656Z,10.70
2022-09-27T15:13:39.545Z,10.70
2022-09-27T15:16:13.023Z,10.70
2022-09-27T15:18:43.113Z,10.70
2022-09-27T15:21:13.000Z,10.70
2022-09-27T15:23:43.275Z,10.70
2022-09-27T15:26:15.679Z,10.70
2022-09-27T15:28:45.027Z,10.70
2022-09-27T15:31:14.908Z,10.60
2022-09-27T15:33:43.871Z,10.60
2022-09-27T15:36:15.884Z,10.60
2022-09-27T15:38:47.384Z,10.60
2022-09-27T15:41:16.120Z,10.60
2022-09-27T15:43:46.525Z,10.60
2022-09-27T15:46:33.853Z,10.60
2022-09-27T15:49:31.155Z,10.60
2022-09-27T15:52:01.250Z,10.60
2022-09-27T15:54:30.593Z,10.60
2022-09-27T15:57:04.188Z,10.60
2022-09-27T15:59:34.979Z,10.50
2022-09-27T16:02:11.166Z,10.50
2022-09-27T16:04:38.917Z,10.50
2022-09-27T16:07:09.163Z,10.40
2022-09-27T16:09:37.044Z,10.40
2022-09-27T16:12:04.990Z,10.40
2022-09-27T16:14:32.738Z,10.40
2022-09-27T16:17:00.759Z,10.40
2022-09-27T16:19:29.844Z,10.40
2022-09-27T16:21:57.628Z,10.40
2022-09-27T16:24:27.871Z,10.40
2022-09-27T16:26:55.606Z,10.40
2022-09-27T16:29:23.398Z,10.40
2022-09-27T16:31:53.491Z,10.30
2022-09-27T16:34:21.675Z,10.30
2022-09-27T16:36:51.850Z,10.30
2022-09-27T16:39:19.620Z,10.30
2022-09-27T16:41:48.178Z,10.20
2022-09-27T16:44:17.298Z,10.20
2022-09-27T16:46:46.291Z,10.10
2022-09-27T16:49:28.091Z,10.10
2022-09-27T16:52:03.091Z,10.00
2022-09-27T16:54:31.153Z,10.00
2022-09-27T16:56:59.883Z,10.00
2022-09-27T16:59:27.728Z,9.90
2022-09-27T17:01:57.418Z,9.90
2022-09-27T17:04:25.869Z,9.90
2022-09-27T17:09:46.295Z,9.80
2022-09-27T17:12:14.724Z,9.80
2022-09-27T17:14:42.504Z,9.70
2022-09-27T17:17:10.354Z,9.70
2022-09-27T17:19:39.070Z,9.70
2022-09-27T17:22:08.457Z,9.70
2022-09-27T17:24:36.757Z,9.60
2022-09-27T17:27:05.833Z,9.60
2022-09-27T17:29:33.593Z,9.60
2022-09-27T17:32:01.546Z,9.60
2022-09-27T17:34:29.358Z,9.50
2022-09-27T17:36:57.183Z,9.50
2022-09-27T17:39:24.927Z,9.50
2022-09-27T17:41:52.693Z,9.50
2022-09-27T17:44:23.519Z,9.50
2022-09-27T17:47:11.284Z,9.50
2022-09-27T17:49:57.517Z,9.40
2022-09-27T17:52:25.611Z,9.40
2022-09-27T17:54:55.452Z,9.40
2022-09-27T17:57:23.291Z,9.30
2022-09-27T17:59:53.460Z,9.30
2022-09-27T18:02:21.567Z,9.30
2022-09-27T18:04:49.398Z,9.20
2022-09-27T18:07:17.389Z,9.20
2022-09-27T18:09:45.198Z,9.20
2022-09-27T18:12:13.676Z,9.20
2022-09-27T18:14:42.019Z,9.20
2022-09-27T18:17:12.752Z,9.20
2022-09-27T18:19:40.531Z,9.20
2022-09-27T18:22:08.368Z,9.10
2022-09-27T18:24:36.095Z,9.10
2022-09-27T18:27:04.176Z,9.10
2022-09-27T18:29:31.926Z,9.10
2022-09-27T18:32:01.343Z,9.10
2022-09-27T18:34:30.399Z,9.10
2022-09-27T18:36:58.156Z,9.00
2022-09-27T18:39:25.891Z,9.00
2022-09-27T18:41:55.331Z,9.00
2022-09-27T18:44:23.080Z,9.00
2022-09-27T18:46:52.238Z,9.00
2022-09-27T18:49:24.844Z,8.90
2022-09-27T18:51:55.422Z,8.90
2022-09-27T18:54:23.672Z,8.90
2022-09-27T18:56:52.558Z,8.90
2022-09-27T18:59:20.732Z,8.90
2022-09-27T19:01:48.755Z,8.90
2022-09-27T19:04:23.841Z,8.90
2022-09-27T19:06:52.338Z,8.90
2022-09-27T19:09:21.659Z,8.90
2022-09-27T19:11:49.455Z,8.80
2022-09-27T19:14:19.989Z,8.80
2022-09-27T19:16:48.477Z,8.80
2022-09-27T19:19:17.007Z,8.80
2022-09-27T19:21:45.471Z,8.70
2022-09-27T19:24:13.879Z,8.70
2022-09-27T19:26:43.298Z,8.70
2022-09-27T19:29:11.474Z,8.70
2022-09-27T19:31:39.381Z,8.70
2022-09-27T19:34:07.153Z,8.70
2022-09-27T19:36:34.896Z,8.70
2022-09-27T19:39:02.734Z,8.60
2022-09-27T19:41:30.515Z,8.60
2022-09-27T19:43:59.649Z,8.60
2022-09-27T19:46:27.635Z,8.60
2022-09-27T19:48:56.270Z,8.60
2022-09-27T19:51:25.926Z,8.50
2022-09-27T19:53:54.248Z,8.50
2022-09-27T19:56:22.855Z,8.50
2022-09-27T19:58:51.061Z,8.50
2022-09-27T20:01:23.672Z,8.50
2022-09-27T20:03:53.304Z,8.50
2022-09-27T20:06:22.153Z,8.40
2022-09-27T20:08:50.467Z,8.40
2022-09-27T20:11:20.516Z,8.40
2022-09-27T20:13:49.715Z,8.40
2022-09-27T20:16:18.807Z,8.40
2022-09-27T20:18:49.350Z,8.40
2022-09-27T20:21:18.835Z,8.40
2022-09-27T20:23:49.569Z,8.40
2022-09-27T20:26:19.471Z,8.40
2022-09-27T20:28:49.068Z,8.40
2022-09-27T20:31:19.250Z,8.40
2022-09-27T20:33:50.580Z,8.40
2022-09-27T20:36:20.231Z,8.40
2022-09-27T20:38:49.957Z,8.40
2022-09-27T20:41:20.071Z,8.40
2022-09-27T20:43:48.629Z,8.40
2022-09-27T20:46:18.067Z,8.40
2022-09-27T20:48:50.933Z,8.40
2022-09-27T20:51:18.975Z,8.50
2022-09-27T20:53:46.727Z,8.50
2022-09-27T20:56:19.103Z,8.50
2022-09-27T20:58:47.159Z,8.40
2022-09-27T21:01:16.204Z,8.40
2022-09-27T21:03:43.957Z,8.50
2022-09-27T21:06:13.792Z,8.40
2022-09-27T21:08:42.054Z,8.40
2022-09-27T21:11:11.135Z,8.40
2022-09-27T21:13:39.702Z,8.50
2022-09-27T21:16:09.726Z,8.40
2022-09-27T21:18:37.978Z,8.40
2022-09-27T21:21:07.956Z,8.40
2022-09-27T21:23:44.140Z,8.40
2022-09-27T21:26:14.335Z,8.40
2022-09-27T21:28:43.858Z,8.40
2022-09-27T21:31:14.928Z,8.40
2022-09-27T21:33:47.911Z,8.40
2022-09-27T21:36:16.255Z,8.40
2022-09-27T21:38:45.376Z,8.40
2022-09-27T21:41:14.918Z,8.40
2022-09-27T21:43:44.078Z,8.40
2022-09-27T21:46:13.794Z,8.40
2022-09-27T21:48:43.568Z,8.50
2022-09-27T21:51:13.409Z,8.50
2022-09-27T21:53:43.257Z,8.50
2022-09-27T21:56:12.749Z,8.40
2022-09-27T21:58:41.704Z,8.40
2022-09-27T22:01:10.961Z,8.40
2022-09-27T22:03:39.680Z,8.40
2022-09-27T22:06:10.600Z,8.40
2022-09-27T22:08:38.877Z,8.40
2022-09-27T22:11:07.563Z,8.40
2022-09-27T22:13:37.044Z,8.40
2022-09-27T22:16:06.224Z,8.50
2022-09-27T22:18:37.194Z,8.40
2022-09-27T22:21:05.731Z,8.40
2022-09-27T22:23:33.685Z,8.40
2022-09-27T22:26:11.119Z,8.40
2022-09-27T22:28:40.244Z,8.40
2022-09-27T22:31:08.411Z,8.40
2022-09-27T22:33:36.467Z,8.40
2022-09-27T22:36:04.666Z,8.40
2022-09-27T22:38:32.688Z,8.40
2022-09-27T22:41:02.976Z,8.40
2022-09-27T22:43:30.948Z,8.40
2022-09-27T22:46:01.118Z,8.40
2022-09-27T22:48:30.571Z,8.40
2022-09-27T22:50:59.131Z,8.40
2022-09-27T22:53:28.005Z,8.40
2022-09-27T22:56:03.837Z,8.40
2022-09-27T22:58:33.976Z,8.40
2022-09-27T23:01:08.562Z,8.40
2022-09-27T23:03:37.004Z,8.40
2022-09-27T23:06:06.947Z,8.40
2022-09-27T23:08:36.050Z,8.40
2022-09-27T23:11:05.441Z,8.40
2022-09-27T23:13:34.119Z,8.40
2022-09-27T23:16:04.825Z,8.50
2022-09-27T23:18:33.175Z,8.50
2022-09-27T23:21:03.312Z,8.50
2022-09-27T23:23:32.002Z,8.50
2022-09-27T23:26:01.250Z,8.50
2022-09-27T23:28:29.774Z,8.50
2022-09-27T23:30:57.657Z,8.50
2022-09-27T23:33:27.964Z,8.40
2022-09-27T23:35:55.730Z,8.50
2022-09-27T23:38:23.518Z,8.50
2022-09-27T23:40:51.467Z,8.40
2022-09-27T23:43:19.270Z,8.50
2022-09-27T23:45:47.053Z,8.50
2022-09-27T23:48:14.845Z,8.50
2022-09-27T23:50:45.040Z,8.40
2022-09-27T23:53:12.854Z,8.40
2022-09-27T23:55:40.629Z,8.40
2022-09-27T23:58:08.380Z,8.40
